Time;durP1;ratioP1;P1;durP2;ratioP2;P2;SDS_P1;SDS_P2;PMS_P1;PMS_P2;Temp;Humidity;BMP_temperature;BMP_pressure;BME280_temperature;BME280_humidity;BME280_pressure;Samples;Min_cycle;Max_cycle;Signal;HPM_P1;HPM_P2
2023/01/01 14:30:21;;;;;;;7.60;2.42;;;;;;;17.81;46.81;100180.91;992800;54;50600;-80
2023/01/01 14:31:56;;;;;;;5.18;2.13;;;;;;;18.03;46.92;100167.47;1087041;54;20090;-80
2023/01/01 14:33:07;;;;;;;5.97;2.70;;;;;;;18.18;46.39;100176.38;1087232;54;20623;-82
2023/01/01 14:34:14;;;;;;;5.07;2.17;;;;;;;18.22;46.43;100177.69;1087021;54;20043;-84
2023/01/01 14:35:19;;;;;;;5.82;2.22;;;;;;;18.30;46.38;100170.47;1087146;54;20683;-82
2023/01/01 14:36:22;;;;;;;5.20;2.53;;;;;;;18.33;46.23;100172.75;1087206;54;20042;-79
2023/01/01 14:37:27;;;;;;;6.13;2.40;;;;;;;18.30;46.41;100175.88;1087139;54;20038;-78
2023/01/01 14:38:36;;;;;;;6.78;2.88;;;;;;;18.33;46.26;100175.47;1087409;54;20057;-78
2023/01/01 14:39:40;;;;;;;5.38;2.00;;;;;;;18.36;46.14;100173.25;1087049;54;20042;-80
2023/01/01 14:40:44;;;;;;;4.18;1.90;;;;;;;18.45;46.34;100171.22;1086760;54;20046;-82
2023/01/01 14:41:49;;;;;;;6.80;2.65;;;;;;;18.24;46.56;100167.47;1086715;54;20030;-80
2023/01/01 14:42:55;;;;;;;6.32;2.35;;;;;;;18.32;46.43;100166.53;1089219;39;20971;-83
2023/01/01 14:44:05;;;;;;;6.40;2.60;;;;;;;18.32;46.34;100177.34;1086484;54;20059;-81
2023/01/01 14:45:20;;;;;;;5.28;2.22;;;;;;;18.35;45.94;100168.00;1086476;54;20038;-80
2023/01/01 14:46:28;;;;;;;6.47;2.67;;;;;;;18.37;46.05;100168.66;1086965;54;20046;-81
2023/01/01 14:47:35;;;;;;;6.90;2.33;;;;;;;18.44;46.07;100166.00;1086869;54;20094;-82
2023/01/01 14:48:44;;;;;;;5.07;2.20;;;;;;;18.48;46.25;100170.84;1086933;46;20054;-81
2023/01/01 14:49:49;;;;;;;7.22;2.72;;;;;;;18.35;46.26;100160.72;1087411;46;20090;-80
2023/01/01 14:50:55;;;;;;;6.57;2.40;;;;;;;18.35;46.39;100166.16;1086981;54;20042;-80
2023/01/01 14:52:03;;;;;;;5.05;2.13;;;;;;;18.34;46.11;100163.63;1087001;54;20106;-81
2023/01/01 14:53:10;;;;;;;5.75;2.08;;;;;;;18.35;46.00;100168.84;1086919;54;20030;-82
2023/01/01 14:54:21;;;;;;;5.45;2.30;;;;;;;18.37;45.96;100166.75;1086946;54;20042;-80
2023/01/01 14:55:29;;;;;;;5.63;2.05;;;;;;;18.33;45.96;100160.09;1086972;39;20720;-82
2023/01/01 14:56:33;;;;;;;6.72;2.10;;;;;;;18.26;46.29;100158.34;1087165;54;20038;-83
2023/01/01 14:57:39;;;;;;;5.53;2.47;;;;;;;18.26;46.34;100161.88;1087186;54;20055;-81
2023/01/01 14:58:43;;;;;;;5.38;2.40;;;;;;;18.17;46.40;100163.03;1087148;54;20022;-83
2023/01/01 14:59:53;;;;;;;7.38;2.50;;;;;;;18.16;46.39;100161.38;1087024;54;20069;-81
2023/01/01 15:01:16;;;;;;;5.05;2.05;;;;;;;18.16;45.98;100156.78;1087013;54;20042;-81
2023/01/01 15:02:23;;;;;;;5.28;2.20;;;;;;;18.23;46.03;100157.69;1086859;54;20090;-82
2023/01/01 15:03:28;;;;;;;5.18;2.25;;;;;;;18.31;46.00;100153.19;1088506;39;21033;-82
2023/01/01 15:04:33;;;;;;;5.00;2.03;;;;;;;18.19;46.21;100155.56;1086979;54;20059;-81
2023/01/01 15:05:35;;;;;;;11.23;2.63;;;;;;;18.24;46.37;100156.66;1086940;54;20042;-80
2023/01/01 15:06:42;;;;;;;5.90;2.10;;;;;;;18.27;45.99;100158.16;1086963;54;20037;-83
2023/01/01 15:07:55;;;;;;;4.97;2.17;;;;;;;18.26;46.06;100167.31;1086802;54;20043;-81
2023/01/01 15:08:59;;;;;;;7.13;2.40;;;;;;;18.22;46.15;100158.75;1087016;54;20062;-81
2023/01/01 15:10:02;;;;;;;5.03;2.38;;;;;;;18.26;46.29;100163.75;1087009;54;20035;-80
2023/01/01 15:11:06;;;;;;;6.82;2.05;;;;;;;18.28;46.16;100158.97;1087012;54;20042;-82
2023/01/01 15:12:16;;;;;;;4.53;2.08;;;;;;;18.28;45.87;100157.09;1087945;39;20636;-81
2023/01/01 15:13:23;;;;;;;4.93;2.40;;;;;;;18.26;46.33;100155.63;1086956;54;20038;-82
2023/01/01 15:14:38;;;;;;;6.68;2.03;;;;;;;18.22;45.93;100156.03;1086979;54;20596;-81
2023/01/01 15:15:44;;;;;;;4.60;2.00;;;;;;;18.28;46.21;100158.97;1087077;54;20042;-78
2023/01/01 15:17:04;;;;;;;5.00;1.90;;;;;;;18.24;45.85;100155.81;1087050;54;20039;-79
2023/01/01 15:18:34;;;;;;;3.72;1.70;;;;;;;18.27;46.03;100146.47;1086631;54;20034;-81
2023/01/01 15:19:40;;;;;;;5.95;1.85;;;;;;;18.18;46.52;100152.03;1086656;54;20046;-82
2023/01/01 15:20:44;;;;;;;5.03;2.05;;;;;;;18.26;46.16;100147.50;1086775;54;20030;-82
2023/01/01 15:21:48;;;;;;;4.90;2.22;;;;;;;18.22;46.49;100147.06;1086589;54;20035;-82
2023/01/01 15:22:51;;;;;;;6.10;1.92;;;;;;;18.24;46.25;100147.72;1086749;54;20050;-79
2023/01/01 15:23:58;;;;;;;4.72;2.05;;;;;;;18.27;46.30;100157.31;1086851;54;20719;-82
2023/01/01 15:25:04;;;;;;;5.68;2.45;;;;;;;18.14;46.38;100160.72;1087197;46;20034;-81
2023/01/01 15:26:19;;;;;;;5.75;1.80;;;;;;;18.18;46.52;100164.72;1087220;54;20141;-84
2023/01/01 15:27:27;;;;;;;5.82;2.42;;;;;;;18.13;46.56;100162.59;1087159;54;20061;-82
2023/01/01 15:28:29;;;;;;;5.18;2.22;;;;;;;18.15;46.72;100167.81;1087178;54;20035;-83
2023/01/01 15:29:36;;;;;;;4.70;1.70;;;;;;;18.16;46.54;100167.59;1087060;54;20034;-82
2023/01/01 15:30:42;;;;;;;6.50;2.60;;;;;;;18.09;46.84;100154.00;1086571;54;21555;-83
2023/01/01 15:31:49;;;;;;;6.68;2.13;;;;;;;18.09;46.84;100161.28;1086927;54;20038;-84
2023/01/01 15:32:54;;;;;;;5.32;2.50;;;;;;;18.05;46.89;100159.97;1087516;39;20326;-83
2023/01/01 15:33:59;;;;;;;5.32;2.00;;;;;;;18.09;46.81;100158.59;1087203;54;20018;-82
2023/01/01 15:35:05;;;;;;;5.13;1.88;;;;;;;18.06;47.02;100164.38;1087286;46;20041;-81
2023/01/01 15:36:10;;;;;;;4.60;2.33;;;;;;;18.04;47.18;100158.34;1086927;54;20564;-80
2023/01/01 15:37:17;;;;;;;5.55;2.42;;;;;;;18.03;46.97;100157.47;1087684;46;20034;-80
2023/01/01 15:38:24;;;;;;;6.38;2.60;;;;;;;17.99;47.24;100158.06;1086925;54;20038;-81
2023/01/01 15:39:29;;;;;;;5.65;2.38;;;;;;;17.93;47.27;100156.91;1091598;39;20629;-81
2023/01/01 15:40:37;;;;;;;5.95;2.45;;;;;;;17.87;47.35;100153.09;1087376;54;20030;-81
2023/01/01 15:41:45;;;;;;;5.10;2.65;;;;;;;17.85;47.54;100155.19;1087487;54;20042;-83
2023/01/01 15:43:13;;;;;;;4.68;2.47;;;;;;;17.71;47.67;100150.63;1087455;54;20106;-82
2023/01/01 15:44:23;;;;;;;6.03;3.03;;;;;;;17.73;47.85;100152.09;1087401;54;20044;-79
2023/01/01 15:45:31;;;;;;;5.68;2.97;;;;;;;17.70;48.09;100151.66;1087429;54;20938;-83
2023/01/01 15:46:33;;;;;;;8.32;3.17;;;;;;;17.67;48.36;100147.47;1091690;31;20703;-83
2023/01/01 15:47:40;;;;;;;5.85;2.85;;;;;;;17.67;48.15;100152.00;1087012;54;20065;-82
2023/01/01 15:48:53;;;;;;;7.82;3.00;;;;;;;17.62;48.17;100153.44;1086984;54;20042;-81
2023/01/01 15:50:07;;;;;;;6.10;2.83;;;;;;;17.51;48.83;100153.09;1086841;54;20106;-81
2023/01/01 15:51:17;;;;;;;5.28;3.20;;;;;;;17.53;48.49;100159.97;1086943;54;20051;-81
2023/01/01 15:52:28;;;;;;;6.80;3.20;;;;;;;17.51;48.77;100159.31;1086830;54;20853;-80
2023/01/01 15:53:34;;;;;;;6.40;2.70;;;;;;;17.51;48.63;100156.63;1086803;54;20565;-83
2023/01/01 15:54:41;;;;;;;5.80;3.05;;;;;;;17.46;48.73;100154.47;1086605;54;20046;-81
2023/01/01 15:55:44;;;;;;;5.10;2.45;;;;;;;17.46;48.64;100153.66;1086698;54;20038;-80
2023/01/01 15:56:48;;;;;;;4.75;2.60;;;;;;;17.43;48.69;100157.53;1086949;54;20038;-81
2023/01/01 15:57:51;;;;;;;5.72;2.90;;;;;;;17.42;48.93;100158.59;1086729;54;20730;-83
2023/01/01 15:58:59;;;;;;;4.90;2.80;;;;;;;17.37;48.98;100157.47;1088735;47;20038;-82
2023/01/01 16:00:04;;;;;;;7.30;3.75;;;;;;;17.31;49.25;100157.19;1086712;54;20584;-80
2023/01/01 16:01:09;;;;;;;7.13;3.25;;;;;;;17.29;49.17;100161.09;1086860;54;20052;-80
2023/01/01 16:02:18;;;;;;;7.13;3.47;;;;;;;17.28;49.42;100149.47;1087094;54;20026;-83
2023/01/01 16:03:21;;;;;;;6.13;3.00;;;;;;;17.26;49.46;100153.34;1086604;54;20077;-83
2023/01/01 16:04:29;;;;;;;6.95;3.03;;;;;;;17.21;49.39;100148.50;1086556;54;20034;-83
2023/01/01 16:05:33;;;;;;;9.00;3.92;;;;;;;17.09;50.12;100155.41;1086383;54;20054;-81
2023/01/01 16:06:45;;;;;;;6.70;4.43;;;;;;;17.08;49.92;100148.34;1086719;54;20022;-84
2023/01/01 16:07:49;;;;;;;8.50;4.25;;;;;;;17.08;50.23;100142.94;1086713;54;20034;-81
2023/01/01 16:08:53;;;;;;;7.72;4.07;;;;;;;17.03;49.96;100146.19;1086683;54;20029;-82
2023/01/01 16:09:57;;;;;;;9.48;3.80;;;;;;;17.02;50.44;100149.06;1086569;54;20061;-84
2023/01/01 16:11:02;;;;;;;8.30;4.28;;;;;;;16.96;50.49;100146.06;1086348;54;20035;-81
2023/01/01 16:12:06;;;;;;;8.23;4.18;;;;;;;16.89;50.55;100139.72;1086534;54;20046;-81
2023/01/01 16:13:08;;;;;;;9.15;4.40;;;;;;;16.89;50.75;100142.41;1086738;54;20062;-80
2023/01/01 16:14:13;;;;;;;7.25;3.65;;;;;;;16.85;50.86;100146.50;1086735;54;20689;-84
2023/01/01 16:15:18;;;;;;;7.10;4.00;;;;;;;16.85;50.91;100138.38;1096338;31;20663;-81
2023/01/01 16:16:29;;;;;;;6.88;4.22;;;;;;;16.81;51.02;100137.91;1086843;54;20034;-82
2023/01/01 16:17:33;;;;;;;7.13;4.10;;;;;;;16.81;50.96;100129.00;1086619;54;20034;-81
2023/01/01 16:18:37;;;;;;;9.32;4.30;;;;;;;16.75;51.05;100130.56;1086780;54;20053;-82
2023/01/01 16:19:45;;;;;;;8.48;4.70;;;;;;;16.75;51.17;100124.31;1086736;54;20034;-82
2023/01/01 16:20:46;;;;;;;10.32;4.97;;;;;;;16.72;51.42;100125.53;1086757;54;20038;-81
2023/01/01 16:21:51;;;;;;;9.02;4.55;;;;;;;16.69;51.33;100118.66;1086820;54;20034;-81
2023/01/01 16:22:55;;;;;;;10.23;4.57;;;;;;;16.64;51.41;100121.03;1086867;54;20034;-81
2023/01/01 16:24:00;;;;;;;9.38;4.53;;;;;;;16.64;51.23;100115.63;1086686;54;20067;-81
2023/01/01 16:25:07;;;;;;;11.93;5.05;;;;;;;16.56;51.42;100117.59;1086768;54;20034;-82
2023/01/01 16:26:12;;;;;;;10.63;5.45;;;;;;;16.56;51.81;100118.41;1086844;54;21052;-80
2023/01/01 16:27:16;;;;;;;7.38;4.10;;;;;;;16.53;51.59;100118.78;1086557;54;20031;-80
2023/01/01 16:29:01;;;;;;;11.57;4.63;;;;;;;16.33;52.61;100124.69;1086906;54;20038;-82
2023/01/01 16:30:06;;;;;;;10.77;4.95;;;;;;;16.34;52.11;100115.56;1086471;54;20037;-80
2023/01/01 16:31:16;;;;;;;9.27;4.80;;;;;;;16.36;52.26;100123.47;1086389;54;20058;-81
2023/01/01 16:32:21;;;;;;;10.13;5.32;;;;;;;16.34;52.28;100120.94;1086663;54;20115;-81
2023/01/01 16:33:23;;;;;;;8.80;4.80;;;;;;;16.36;52.32;100127.00;1087140;54;20046;-81
2023/01/01 16:34:27;;;;;;;11.20;5.68;;;;;;;16.32;52.20;100123.00;1086205;54;20034;-82
2023/01/01 16:35:35;;;;;;;12.15;6.88;;;;;;;16.29;52.54;100123.34;1086244;54;20053;-83
2023/01/01 16:36:39;;;;;;;15.10;7.65;;;;;;;16.19;52.66;100120.06;1086523;54;20042;-81
2023/01/01 16:37:40;;;;;;;13.82;8.10;;;;;;;16.21;52.57;100118.03;1086125;54;20030;-82
2023/01/01 16:38:45;;;;;;;16.60;9.45;;;;;;;16.11;53.22;100120.13;1086320;54;20035;-81
2023/01/01 16:39:49;;;;;;;16.15;10.20;;;;;;;16.13;53.17;100118.09;1086362;54;20051;-83
2023/01/01 16:40:51;;;;;;;16.00;9.70;;;;;;;16.05;53.19;100117.13;1086754;54;20030;-81
2023/01/01 16:41:59;;;;;;;15.93;9.98;;;;;;;16.10;53.16;100110.34;1086891;54;20030;-80
2023/01/01 16:43:04;;;;;;;12.88;9.30;;;;;;;16.08;53.10;100105.16;1087283;54;20053;-83
2023/01/01 16:44:13;;;;;;;14.25;9.30;;;;;;;16.06;53.03;100108.00;1087253;54;20769;-81
2023/01/01 16:45:20;;;;;;;15.25;9.50;;;;;;;16.00;53.44;100114.13;1086829;54;20069;-83
2023/01/01 16:46:26;;;;;;;17.52;10.30;;;;;;;15.83;53.74;100112.53;1086645;54;20031;-82
2023/01/01 16:47:30;;;;;;;20.10;11.55;;;;;;;15.68;53.86;100115.13;1086954;54;20034;-83
2023/01/01 16:48:32;;;;;;;17.70;11.98;;;;;;;15.64;54.17;100109.25;1087145;54;20041;-83
2023/01/01 16:49:37;;;;;;;17.23;10.57;;;;;;;15.75;54.00;100110.69;1087084;54;20086;-80
2023/01/01 16:50:44;;;;;;;13.27;9.75;;;;;;;15.80;53.85;100110.16;1087243;54;20053;-81
2023/01/01 16:51:49;;;;;;;14.70;9.65;;;;;;;15.82;53.90;100106.28;1087200;54;20074;-82
2023/01/01 16:52:50;;;;;;;13.68;9.10;;;;;;;15.81;53.58;100114.53;1087096;54;20046;-81
2023/01/01 16:53:56;;;;;;;12.25;9.02;;;;;;;15.81;53.92;100114.53;1086912;54;20038;-81
2023/01/01 16:55:03;;;;;;;13.35;9.32;;;;;;;15.82;53.68;100108.97;1087129;46;20053;-82
2023/01/01 16:56:08;;;;;;;13.48;8.25;;;;;;;15.75;53.93;100119.66;1087208;54;20038;-81
2023/01/01 16:57:12;;;;;;;11.70;8.05;;;;;;;15.75;53.95;100111.56;1087141;54;20070;-82
2023/01/01 16:58:16;;;;;;;13.38;7.80;;;;;;;15.66;54.25;100109.06;1087083;54;20038;-82
2023/01/01 16:59:21;;;;;;;10.00;7.25;;;;;;;15.67;54.24;100117.00;1087081;54;20035;-83
2023/01/01 17:00:23;;;;;;;11.77;7.82;;;;;;;15.62;54.36;100121.22;1087029;54;20035;-81
2023/01/01 17:01:28;;;;;;;14.07;7.72;;;;;;;15.64;54.43;100114.66;1086970;54;20043;-82
2023/01/01 17:02:32;;;;;;;11.35;6.78;;;;;;;15.67;54.36;100114.31;1087180;54;20035;-83
2023/01/01 17:03:37;;;;;;;11.02;7.13;;;;;;;15.65;54.19;100113.63;1087156;54;20031;-82
2023/01/01 17:04:41;;;;;;;11.00;7.15;;;;;;;15.65;54.33;100107.38;1087035;54;20035;-84
2023/01/01 17:05:48;;;;;;;13.88;8.73;;;;;;;15.43;54.80;100109.88;1087181;54;20086;-82
2023/01/01 17:06:53;;;;;;;17.23;7.60;;;;;;;15.41;54.80;100107.34;1086808;54;20038;-82
2023/01/01 17:07:57;;;;;;;10.90;6.85;;;;;;;15.45;54.80;100115.91;1087044;54;20030;-83
2023/01/01 17:09:01;;;;;;;11.15;6.60;;;;;;;15.49;55.00;100108.34;1086852;54;20042;-83
2023/01/01 17:10:04;;;;;;;12.38;7.15;;;;;;;15.46;54.69;100104.09;1086838;54;20042;-82
2023/01/01 17:11:14;;;;;;;10.48;6.50;;;;;;;15.41;54.97;100112.72;1087491;39;20241;-83
2023/01/01 17:12:18;;;;;;;9.38;6.25;;;;;;;15.43;54.85;100112.56;1087231;54;20034;-81
2023/01/01 17:13:20;;;;;;;11.80;7.07;;;;;;;15.42;55.09;100117.09;1086994;54;20043;-81
2023/01/01 17:14:24;;;;;;;13.20;8.13;;;;;;;15.40;55.03;100121.81;1087186;54;20039;-82
2023/01/01 17:15:29;;;;;;;18.98;9.93;;;;;;;15.35;55.10;100121.50;1087056;54;20039;-84
2023/01/01 17:16:33;;;;;;;25.67;12.95;;;;;;;15.33;55.15;100112.75;1087214;54;20070;-82
2023/01/01 17:17:35;;;;;;;22.73;12.38;;;;;;;15.27;55.29;100118.84;1089545;39;20643;-82
2023/01/01 17:18:39;;;;;;;30.25;14.82;;;;;;;15.29;55.11;100112.25;1087314;54;20049;-84
2023/01/01 17:19:43;;;;;;;27.20;12.98;;;;;;;15.27;55.30;100114.28;1086970;54;20059;-84
2023/01/01 17:20:48;;;;;;;29.90;13.52;;;;;;;15.22;55.55;100118.50;1087299;54;20034;-82
2023/01/01 17:21:52;;;;;;;23.27;12.13;;;;;;;15.25;55.22;100108.25;1087277;54;20034;-85
2023/01/01 17:22:56;;;;;;;20.67;11.65;;;;;;;15.21;55.43;100124.94;1087126;54;20039;-82
2023/01/01 17:24:01;;;;;;;22.10;11.25;;;;;;;15.21;55.63;100120.38;1086969;54;20061;-81
2023/01/01 17:25:05;;;;;;;21.85;11.52;;;;;;;15.22;55.65;100116.69;1086828;54;20046;-80
2023/01/01 17:26:12;;;;;;;20.20;10.63;;;;;;;15.22;55.78;100116.69;1086950;54;20057;-83
2023/01/01 17:27:14;;;;;;;18.75;11.10;;;;;;;15.15;55.47;100115.69;1086816;54;20015;-83
2023/01/01 17:28:18;;;;;;;17.42;10.27;;;;;;;15.15;55.77;100123.78;1087035;54;20035;-81
2023/01/01 17:29:20;;;;;;;20.55;9.75;;;;;;;15.11;55.65;100119.72;1086861;54;20046;-81
2023/01/01 17:30:25;;;;;;;19.98;10.85;;;;;;;14.97;56.30;100122.09;1087023;54;20027;-82
2023/01/01 17:31:29;;;;;;;19.50;10.23;;;;;;;14.93;56.54;100119.94;1086886;54;20034;-82
2023/01/01 17:32:34;;;;;;;25.17;11.35;;;;;;;14.61;57.03;100119.78;1086962;46;20034;-82
2023/01/01 17:33:39;;;;;;;20.85;11.25;;;;;;;14.56;57.62;100113.22;1087090;54;20037;-81
2023/01/01 17:34:43;;;;;;;16.27;10.05;;;;;;;14.68;57.09;100122.69;1086931;54;20055;-81
2023/01/01 17:35:50;;;;;;;14.90;9.18;;;;;;;14.70;57.05;100126.03;1086941;54;20030;-82
2023/01/01 17:36:54;;;;;;;15.23;9.45;;;;;;;14.74;56.73;100119.28;1087084;54;20038;-83
2023/01/01 17:37:58;;;;;;;15.82;9.40;;;;;;;14.73;56.88;100123.03;1087886;39;20533;-82
2023/01/01 17:39:02;;;;;;;15.02;9.18;;;;;;;14.78;57.07;100115.25;1087037;54;20039;-83
2023/01/01 17:40:08;;;;;;;17.48;9.93;;;;;;;14.63;57.37;100119.63;1086956;54;20071;-82
2023/01/01 17:41:14;;;;;;;13.07;8.70;;;;;;;14.69;57.05;100113.59;1087176;54;20063;-82
2023/01/01 17:42:19;;;;;;;14.07;9.07;;;;;;;14.70;56.85;100112.59;1087331;54;20038;-84
2023/01/01 17:43:21;;;;;;;14.98;8.65;;;;;;;14.71;57.21;100113.41;1087114;54;20035;-82
2023/01/01 17:44:26;;;;;;;16.00;8.68;;;;;;;14.55;57.41;100117.78;1086864;54;20058;-82
2023/01/01 17:45:31;;;;;;;14.13;9.68;;;;;;;14.37;57.95;100106.34;1087037;46;20041;-84
2023/01/01 17:46:32;;;;;;;14.63;9.73;;;;;;;14.39;57.58;100107.88;1086881;54;20030;-82
2023/01/01 17:47:37;;;;;;;14.15;9.32;;;;;;;14.47;57.78;100113.25;1087103;54;20148;-85
2023/01/01 17:48:41;;;;;;;18.08;10.10;;;;;;;14.51;57.50;100113.72;1086975;54;20014;-83
2023/01/01 17:49:47;;;;;;;13.43;8.25;;;;;;;14.53;57.67;100110.91;1087667;46;20050;-82
2023/01/01 17:50:54;;;;;;;13.35;9.68;;;;;;;14.55;57.66;100117.78;1087039;54;20660;-82
2023/01/01 17:51:58;;;;;;;15.00;9.85;;;;;;;14.55;57.61;100114.25;1087046;54;20038;-80
2023/01/01 17:53:02;;;;;;;14.85;8.77;;;;;;;14.54;57.64;100117.97;1087113;54;20045;-84
2023/01/01 17:54:10;;;;;;;12.20;8.57;;;;;;;14.54;57.63;100112.59;1086990;54;20042;-83
2023/01/01 17:55:14;;;;;;;13.75;9.50;;;;;;;14.52;57.38;100115.41;1086949;39;20808;-82
2023/01/01 17:56:17;;;;;;;12.43;8.57;;;;;;;14.50;57.75;100110.22;1086953;54;20037;-81
2023/01/01 17:57:21;;;;;;;13.55;8.32;;;;;;;14.50;57.76;100107.53;1087098;54;20065;-80
2023/01/01 17:58:26;;;;;;;14.43;9.38;;;;;;;14.45;57.71;100104.50;1087097;54;20499;-84
2023/01/01 17:59:31;;;;;;;15.68;9.80;;;;;;;14.41;57.79;100105.00;1087183;54;20038;-83
2023/01/01 18:00:35;;;;;;;12.32;8.77;;;;;;;14.41;58.10;100103.16;1086926;54;20059;-83
2023/01/01 18:01:39;;;;;;;16.08;9.80;;;;;;;14.42;58.03;100110.22;1087032;54;20035;-83
2023/01/01 18:02:43;;;;;;;13.10;8.88;;;;;;;14.42;57.95;100109.38;1086990;54;20021;-82
2023/01/01 18:03:48;;;;;;;13.73;9.20;;;;;;;14.39;58.02;100109.72;1087991;46;20038;-82
2023/01/01 18:04:53;;;;;;;13.52;8.77;;;;;;;14.40;58.15;100101.47;1086886;54;20046;-83
2023/01/01 18:06:00;;;;;;;16.27;9.30;;;;;;;14.38;58.04;100105.34;1087011;54;20034;-81
2023/01/01 18:07:04;;;;;;;16.17;9.63;;;;;;;14.35;57.82;100103.84;1087173;54;20034;-83
2023/01/01 18:08:09;;;;;;;13.88;9.07;;;;;;;14.33;58.16;100103.16;1086936;54;20038;-81
2023/01/01 18:09:15;;;;;;;12.30;8.27;;;;;;;14.35;58.02;100104.69;1087227;54;20045;-84
2023/01/01 18:10:20;;;;;;;14.02;8.35;;;;;;;14.36;58.09;100105.50;1087066;54;21354;-81
2023/01/01 18:11:26;;;;;;;14.43;8.93;;;;;;;14.32;58.29;100104.19;1086865;54;20042;-84
2023/01/01 18:12:31;;;;;;;13.57;8.07;;;;;;;14.33;58.16;100103.16;1086925;54;20057;-81
2023/01/01 18:13:34;;;;;;;14.50;8.95;;;;;;;14.31;58.01;100102.50;1086541;47;20679;-84
2023/01/01 18:14:39;;;;;;;14.45;8.65;;;;;;;14.26;58.39;100097.63;1088778;39;20225;-82
2023/01/01 18:15:43;;;;;;;16.08;8.20;;;;;;;14.28;58.44;100102.81;1086428;54;20046;-82
2023/01/01 18:16:47;;;;;;;14.15;9.30;;;;;;;14.20;58.51;100106.34;1086581;54;20042;-84
2023/01/01 18:17:51;;;;;;;12.35;8.82;;;;;;;14.19;58.62;100099.31;1087046;54;20049;-84
2023/01/01 18:18:59;;;;;;;13.88;9.15;;;;;;;14.17;58.38;100101.31;1086897;54;20039;-81
2023/01/01 18:20:04;;;;;;;13.32;8.73;;;;;;;14.10;58.54;100098.44;1086920;54;20092;-84
2023/01/01 18:21:13;;;;;;;16.10;9.77;;;;;;;14.04;58.89;100099.13;1088240;39;20563;-83
2023/01/01 18:22:17;;;;;;;18.20;10.07;;;;;;;14.01;59.22;100104.81;1087135;54;20060;-84
2023/01/01 18:23:18;;;;;;;16.35;10.27;;;;;;;13.93;59.23;100094.91;1087467;46;20062;-84
2023/01/01 18:24:23;;;;;;;14.93;10.10;;;;;;;13.93;59.18;100094.91;1088848;39;20468;-80
2023/01/01 18:25:24;;;;;;;16.05;10.02;;;;;;;13.91;59.08;100096.91;1086993;54;20030;-83
2023/01/01 18:26:30;;;;;;;13.27;9.15;;;;;;;13.93;59.34;100094.06;1086897;54;20015;-82
2023/01/01 18:27:34;;;;;;;13.52;9.52;;;;;;;13.93;59.29;100091.38;1087836;39;20678;-81
2023/01/01 18:28:36;;;;;;;14.35;8.68;;;;;;;13.85;59.17;100087.66;1089652;39;20483;-82
2023/01/01 18:29:41;;;;;;;13.43;8.90;;;;;;;13.81;59.73;100096.22;1087147;47;20125;-82
2023/01/01 18:30:42;;;;;;;15.80;9.15;;;;;;;13.76;59.56;100091.34;1086799;54;20046;-83
2023/01/01 18:31:47;;;;;;;15.32;8.93;;;;;;;13.69;59.66;100087.63;1086839;54;20050;-81
2023/01/01 18:32:50;;;;;;;12.13;8.40;;;;;;;13.66;59.80;100086.09;1086921;54;20623;-81
2023/01/01 18:33:54;;;;;;;13.13;8.25;;;;;;;13.65;60.12;100081.72;1087555;39;20508;-81
2023/01/01 18:34:58;;;;;;;13.55;7.75;;;;;;;13.65;59.93;100076.34;1089317;31;20592;-81
2023/01/01 18:36:05;;;;;;;15.60;7.45;;;;;;;13.64;59.84;100076.53;1086934;54;20034;-83
2023/01/01 18:37:15;;;;;;;13.25;7.72;;;;;;;13.60;60.09;100080.56;1087006;54;20047;-84
2023/01/01 18:38:18;;;;;;;12.87;7.83;;;;;;;13.55;60.28;100081.88;1088530;39;20789;-80
2023/01/01 18:39:24;;;;;;;10.60;7.50;;;;;;;13.56;60.13;100078.19;1086842;54;20053;-81
2023/01/01 18:40:30;;;;;;;11.45;7.20;;;;;;;13.54;60.41;100084.75;1086656;54;20034;-81
2023/01/01 18:41:57;;;;;;;13.20;7.78;;;;;;;13.47;60.76;100081.84;1086705;54;20035;-83
2023/01/01 18:43:06;;;;;;;12.13;6.95;;;;;;;13.47;60.40;100076.50;1087030;54;20038;-81
2023/01/01 18:44:17;;;;;;;11.20;7.00;;;;;;;13.46;60.43;100082.84;1087016;54;20824;-82
2023/01/01 18:45:24;;;;;;;11.05;6.95;;;;;;;13.37;60.77;100086.50;1087014;54;20666;-81
2023/01/01 18:46:30;;;;;;;12.93;7.75;;;;;;;13.31;60.83;100079.91;1086607;54;20601;-82
2023/01/01 18:47:35;;;;;;;11.68;7.78;;;;;;;13.24;60.81;100079.72;1086634;54;20034;-82
2023/01/01 18:48:39;;;;;;;12.95;8.13;;;;;;;13.20;61.01;100083.75;1088516;46;20042;-82
2023/01/01 18:49:49;;;;;;;13.05;7.63;;;;;;;13.12;61.43;100086.41;1086498;54;20069;-82
2023/01/01 18:50:53;;;;;;;12.43;7.82;;;;;;;13.12;61.04;100091.75;1092543;39;20766;-82
2023/01/01 18:51:58;;;;;;;11.38;7.50;;;;;;;13.14;60.90;100079.00;1086873;54;20035;-82
2023/01/01 18:53:17;;;;;;;12.02;7.28;;;;;;;13.11;61.15;100090.06;1086697;54;20040;-82
2023/01/01 18:54:22;;;;;;;10.40;7.47;;;;;;;13.09;61.27;100086.72;1087111;47;20113;-80
2023/01/01 18:55:26;;;;;;;11.13;7.15;;;;;;;13.10;61.09;100077.66;1086814;54;20636;-82
2023/01/01 18:56:31;;;;;;;9.93;6.70;;;;;;;13.08;61.20;100075.13;1086983;54;20042;-83
2023/01/01 18:57:32;;;;;;;12.32;7.63;;;;;;;13.08;61.11;100079.66;1087075;54;20046;-84
2023/01/01 18:58:36;;;;;;;16.17;8.13;;;;;;;12.86;61.72;100091.78;1086984;54;20043;-84
2023/01/01 18:59:38;;;;;;;12.45;7.95;;;;;;;12.75;62.23;100087.53;1086412;54;20042;-83
2023/01/01 19:00:43;;;;;;;13.43;8.52;;;;;;;12.83;62.34;100086.72;1087063;54;20030;-83
2023/01/01 19:01:47;;;;;;;13.00;8.00;;;;;;;12.93;61.99;100088.31;1087011;54;20049;-82
2023/01/01 19:02:57;;;;;;;11.77;7.93;;;;;;;12.96;62.24;100081.78;1086956;54;20042;-85
2023/01/01 19:04:05;;;;;;;12.23;8.23;;;;;;;12.89;62.20;100096.84;1087084;54;20046;-84
2023/01/01 19:05:16;;;;;;;13.75;8.70;;;;;;;12.94;62.37;100092.66;1086915;54;20103;-84
2023/01/01 19:06:27;;;;;;;10.88;7.10;;;;;;;12.97;61.97;100083.47;1087108;54;20042;-84
2023/01/01 19:07:31;;;;;;;12.98;7.40;;;;;;;13.01;61.84;100086.66;1087105;54;20038;-82
2023/01/01 19:08:38;;;;;;;11.05;7.53;;;;;;;13.07;61.82;100091.38;1087095;54;20063;-83
2023/01/01 19:09:40;;;;;;;10.38;6.82;;;;;;;13.08;61.62;100085.84;1087107;54;20038;-83
2023/01/01 19:10:50;;;;;;;13.55;8.38;;;;;;;13.07;62.02;100083.34;1087217;47;20035;-83
2023/01/01 19:11:53;;;;;;;13.57;7.72;;;;;;;13.08;61.89;100076.97;1087272;54;20038;-83
2023/01/01 19:12:58;;;;;;;12.25;8.15;;;;;;;13.06;61.58;100073.59;1087226;54;20049;-84
2023/01/01 19:14:10;;;;;;;12.35;7.93;;;;;;;13.05;61.97;100074.59;1087145;54;20067;-83
2023/01/01 19:15:19;;;;;;;10.95;7.88;;;;;;;13.06;62.23;100070.91;1087182;54;20038;-84
2023/01/01 19:16:29;;;;;;;12.95;7.93;;;;;;;13.07;61.86;100083.34;1087037;54;20782;-82
2023/01/01 19:17:30;;;;;;;13.70;8.05;;;;;;;13.07;61.96;100072.59;1087649;54;20110;-84
2023/01/01 19:18:35;;;;;;;13.52;8.82;;;;;;;13.07;62.00;100083.34;1087596;54;20015;-81
2023/01/01 19:19:39;;;;;;;14.77;8.35;;;;;;;13.05;62.24;100070.09;1087398;54;20070;-81
2023/01/01 19:20:43;;;;;;;13.77;8.45;;;;;;;13.07;62.25;100086.00;1087590;54;20111;-80
2023/01/01 19:21:49;;;;;;;15.95;8.73;;;;;;;13.02;62.28;100086.50;1088132;54;20115;-85
2023/01/01 19:22:50;;;;;;;11.82;8.25;;;;;;;13.01;62.50;100084.81;1088027;54;20042;-81
2023/01/01 19:23:59;;;;;;;12.63;8.88;;;;;;;12.95;62.54;100088.97;1088034;54;20014;-83
2023/01/01 19:25:04;;;;;;;15.15;10.02;;;;;;;12.89;62.49;100080.75;1090119;46;20034;-83
2023/01/01 19:26:16;;;;;;;15.02;9.18;;;;;;;12.87;62.89;100080.06;1089504;46;20038;-84
2023/01/01 19:27:21;;;;;;;13.35;9.05;;;;;;;12.86;62.83;100081.06;1087724;54;20030;-83
2023/01/01 19:28:37;;;;;;;12.85;8.82;;;;;;;12.73;63.47;100076.94;1087711;54;20065;-82
2023/01/01 19:29:42;;;;;;;13.93;8.57;;;;;;;12.75;62.97;100080.31;1087834;47;20038;-85
2023/01/01 19:30:47;;;;;;;13.65;9.57;;;;;;;12.67;63.25;100076.72;1087612;54;20030;-84
2023/01/01 19:31:52;;;;;;;13.93;9.13;;;;;;;12.66;63.15;100067.03;1088637;46;20039;-83
2023/01/01 19:32:58;;;;;;;12.70;8.98;;;;;;;12.68;63.12;100065.88;1087800;54;20034;-85
2023/01/01 19:37:26;;;;;;;15.75;9.40;;;;;;;12.53;63.45;100051.31;1087632;54;20057;-85
2023/01/01 19:38:30;;;;;;;15.93;9.60;;;;;;;12.53;63.73;100056.69;1087797;54;20034;-84